Time;durP1;ratioP1;P1;durP2;ratioP2;P2;SDS_P1;SDS_P2;PMS_P1;PMS_P2;Temp;Humidity;BMP_temperature;BMP_pressure;BME280_temperature;BME280_humidity;BME280_pressure;Samples;Min_cycle;Max_cycle;Signal;HPM_P1;HPM_P2
2023/04/07 00:02:03;;;;;;;3.38;1.70;;;;;;;;;;5052075;28;20032;-69
2023/04/07 00:04:30;;;;;;;3.25;1.90;;;;;;;;;;5052102;28;20025;-69
2023/04/07 00:06:56;;;;;;;2.92;1.88;;;;;;;;;;5052311;28;20487;-69
2023/04/07 00:09:22;;;;;;;3.67;1.95;;;;;;;;;;5052369;28;20035;-69
2023/04/07 00:11:50;;;;;;;2.88;1.90;;;;;;;;;;5052221;28;20035;-69
2023/04/07 00:14:16;;;;;;;6.85;2.10;;;;;;;;;;5052165;28;20498;-69
2023/04/07 00:16:43;;;;;;;4.05;2.17;;;;;;;;;;5051839;28;20494;-69
2023/04/07 00:19:09;;;;;;;3.85;2.25;;;;;;;;;;5052368;28;20023;-69
2023/04/07 00:21:35;;;;;;;4.93;2.13;;;;;;;;;;5052094;28;20022;-69
2023/04/07 00:24:02;;;;;;;5.43;2.10;;;;;;;;;;5052189;28;20032;-69
2023/04/07 00:26:30;;;;;;;3.00;1.98;;;;;;;;;;5051761;28;20027;-69
2023/04/07 00:28:59;;;;;;;4.28;2.00;;;;;;;;;;5052207;28;20025;-69
2023/04/07 00:31:26;;;;;;;4.35;1.90;;;;;;;;;;5051628;28;20548;-69
2023/04/07 00:33:52;;;;;;;3.95;2.20;;;;;;;;;;5051951;28;20496;-70
2023/04/07 00:36:19;;;;;;;5.55;1.92;;;;;;;;;;5051720;28;20421;-69
2023/04/07 00:38:45;;;;;;;2.92;1.90;;;;;;;;;;5051982;28;20021;-69
2023/04/07 00:41:11;;;;;;;4.35;2.00;;;;;;;;;;5051687;28;20027;-69
2023/04/07 00:43:37;;;;;;;7.78;1.90;;;;;;;;;;5051799;28;20021;-69
2023/04/07 00:46:04;;;;;;;3.50;1.83;;;;;;;;;;5051297;28;20048;-69
2023/04/07 00:48:30;;;;;;;3.50;1.75;;;;;;;;;;5054263;28;20019;-69
2023/04/07 00:50:57;;;;;;;7.18;2.30;;;;;;;;;;5055779;28;20040;-69
2023/04/07 00:53:23;;;;;;;3.00;2.13;;;;;;;;;;5055831;28;20376;-70
2023/04/07 00:55:49;;;;;;;3.20;2.22;;;;;;;;;;5055622;28;20029;-69
2023/04/07 00:58:16;;;;;;;3.17;2.20;;;;;;;;;;5055585;28;20486;-69
2023/04/07 01:00:49;;;;;;;3.75;2.13;;;;;;;;;;5055185;28;20035;-69
2023/04/07 01:03:35;;;;;;;3.35;2.05;;;;;;;;;;5055764;28;20031;-70
2023/04/07 01:06:02;;;;;;;5.38;2.05;;;;;;;;;;5055120;28;20037;-69
2023/04/07 01:08:37;;;;;;;4.22;2.20;;;;;;;;;;5055379;28;20474;-69
2023/04/07 01:11:13;;;;;;;2.83;1.90;;;;;;;;;;5055604;28;20029;-69
2023/04/07 01:13:45;;;;;;;3.17;2.03;;;;;;;;;;5055547;28;20021;-69
2023/04/07 01:16:27;;;;;;;3.20;1.58;;;;;;;;;;5055620;28;20023;-69
2023/04/07 01:18:58;;;;;;;2.85;1.65;;;;;;;;;;5055535;28;20098;-69
2023/04/07 01:21:26;;;;;;;;;;;;;;;;;;5055573;28;20079;-69
2023/04/07 01:24:03;;;;;;;3.55;1.63;;;;;;;;;;5054813;28;20296;-69
2023/04/07 01:26:30;;;;;;;2.67;1.75;;;;;;;;;;5055357;28;20086;-69
2023/04/07 01:29:11;;;;;;;2.95;1.98;;;;;;;;;;5054735;28;20028;-69
2023/04/07 01:31:39;;;;;;;5.35;1.55;;;;;;;;;;5053816;28;20041;-70
2023/04/07 01:34:06;;;;;;;3.83;2.08;;;;;;;;;;5055074;28;20029;-69
2023/04/07 01:36:33;;;;;;;1.60;1.50;;;;;;;;;;5054856;28;20533;-70
2023/04/07 01:38:59;;;;;;;4.90;1.67;;;;;;;;;;5054958;28;20041;-69
2023/04/07 01:41:26;;;;;;;4.03;1.70;;;;;;;;;;5055080;28;20036;-69
2023/04/07 01:43:53;;;;;;;2.28;1.50;;;;;;;;;;5054434;28;20025;-69
2023/04/07 01:46:20;;;;;;;2.58;1.70;;;;;;;;;;5054921;28;20025;-69
2023/04/07 01:48:47;;;;;;;2.90;1.80;;;;;;;;;;5054614;28;20031;-69
2023/04/07 01:51:17;;;;;;;6.82;2.08;;;;;;;;;;5054367;28;20031;-69
2023/04/07 01:53:47;;;;;;;4.80;2.15;;;;;;;;;;5054518;28;20021;-69
2023/04/07 01:56:13;;;;;;;3.30;1.70;;;;;;;;;;5054317;28;20025;-69
2023/04/07 01:58:40;;;;;;;2.50;1.50;;;;;;;;;;5053973;28;20025;-69
2023/04/07 02:01:06;;;;;;;1.50;1.40;;;;;;;;;;5054345;28;20036;-69
2023/04/07 02:03:43;;;;;;;3.83;1.70;;;;;;;;;;5054473;28;20019;-69
2023/04/07 02:06:11;;;;;;;3.75;1.50;;;;;;;;;;5054184;28;20039;-69
2023/04/07 02:08:42;;;;;;;3.92;2.00;;;;;;;;;;5054461;28;20025;-69
2023/04/07 02:11:10;;;;;;;1.95;1.45;;;;;;;;;;5054072;28;20105;-69
2023/04/07 02:13:37;;;;;;;2.65;1.50;;;;;;;;;;5053752;28;20503;-69
2023/04/07 02:16:04;;;;;;;3.55;1.45;;;;;;;;;;5054095;28;20033;-69
2023/04/07 02:18:31;;;;;;;3.55;1.60;;;;;;;;;;5054148;28;20025;-69
2023/04/07 02:20:58;;;;;;;2.30;1.38;;;;;;;;;;5053909;28;20015;-69
2023/04/07 02:23:24;;;;;;;2.63;1.30;;;;;;;;;;5053998;28;20420;-69
2023/04/07 02:25:50;;;;;;;2.88;1.83;;;;;;;;;;5053811;28;20474;-69
2023/04/07 02:28:17;;;;;;;4.93;2.67;;;;;;;;;;5053934;28;20516;-69
2023/04/07 02:30:43;;;;;;;7.97;3.05;;;;;;;;;;5053447;28;20053;-69
2023/04/07 02:33:09;;;;;;;7.18;2.85;;;;;;;;;;5054168;28;20031;-69
2023/04/07 02:35:36;;;;;;;5.53;2.47;;;;;;;;;;5053789;28;20509;-69
2023/04/07 02:38:02;;;;;;;6.85;2.80;;;;;;;;;;5053554;28;20025;-69
2023/04/07 02:40:28;;;;;;;3.65;2.28;;;;;;;;;;5052749;28;20025;-69
2023/04/07 02:42:55;;;;;;;3.67;1.80;;;;;;;;;;5053752;28;20025;-69
2023/04/07 02:45:21;;;;;;;2.67;1.50;;;;;;;;;;5053563;28;20047;-69
2023/04/07 02:47:47;;;;;;;3.67;1.60;;;;;;;;;;5053476;28;20362;-69
2023/04/07 02:50:14;;;;;;;2.38;1.52;;;;;;;;;;5053374;28;20029;-69
2023/04/07 02:52:40;;;;;;;2.67;1.48;;;;;;;;;;5053577;28;20025;-69
2023/04/07 02:55:07;;;;;;;4.40;1.92;;;;;;;;;;5053555;28;20039;-70
2023/04/07 02:57:33;;;;;;;4.55;2.42;;;;;;;;;;5052982;28;20014;-69
2023/04/07 03:00:00;;;;;;;3.25;1.52;;;;;;;;;;5053361;28;20025;-69
2023/04/07 03:02:26;;;;;;;5.07;2.17;;;;;;;;;;5053229;28;20032;-69
2023/04/07 03:04:52;;;;;;;3.67;1.70;;;;;;;;;;5053175;28;20393;-69
2023/04/07 03:07:19;;;;;;;3.70;1.80;;;;;;;;;;5052929;28;20033;-69
2023/04/07 03:09:45;;;;;;;4.18;1.67;;;;;;;;;;5052291;28;20029;-70
2023/04/07 03:12:11;;;;;;;2.95;1.77;;;;;;;;;;5053086;28;20055;-69
2023/04/07 03:14:38;;;;;;;2.10;1.80;;;;;;;;;;5052660;28;20504;-69
2023/04/07 03:17:05;;;;;;;2.75;1.70;;;;;;;;;;5053276;28;20019;-69
2023/04/07 03:19:31;;;;;;;3.90;1.80;;;;;;;;;;5053134;28;20025;-69
2023/04/07 03:21:57;;;;;;;4.05;2.30;;;;;;;;;;5052919;28;20316;-69
2023/04/07 03:24:24;;;;;;;3.72;2.28;;;;;;;;;;5052754;28;20025;-69
2023/04/07 03:26:50;;;;;;;5.00;2.58;;;;;;;;;;5051567;28;20420;-69
2023/04/07 03:29:17;;;;;;;3.10;2.38;;;;;;;;;;5052788;28;20037;-69
2023/04/07 03:31:43;;;;;;;4.68;2.80;;;;;;;;;;5052813;28;20051;-69
2023/04/07 03:34:10;;;;;;;4.35;1.95;;;;;;;;;;5052643;28;20025;-69
2023/04/07 03:36:36;;;;;;;3.13;1.90;;;;;;;;;;5052816;28;20023;-69
2023/04/07 03:39:02;;;;;;;2.88;1.65;;;;;;;;;;5052591;28;20020;-69
2023/04/07 03:41:29;;;;;;;3.30;1.90;;;;;;;;;;5052623;28;20393;-69
2023/04/07 03:43:55;;;;;;;3.47;1.90;;;;;;;;;;5052599;28;20543;-69
2023/04/07 03:46:22;;;;;;;2.55;1.85;;;;;;;;;;5052190;28;20037;-69
2023/04/07 03:48:48;;;;;;;2.85;1.70;;;;;;;;;;5052991;28;20021;-69
2023/04/07 03:51:15;;;;;;;2.33;1.70;;;;;;;;;;5052726;28;20033;-69
2023/04/07 03:53:41;;;;;;;1.55;1.42;;;;;;;;;;5052371;28;20017;-69
2023/04/07 03:56:07;;;;;;;1.95;1.50;;;;;;;;;;5052337;28;20024;-69
2023/04/07 03:58:34;;;;;;;3.33;1.73;;;;;;;;;;5052264;28;20401;-69
2023/04/07 04:01:00;;;;;;;4.95;2.53;;;;;;;;;;5051953;28;20481;-69
2023/04/07 04:03:26;;;;;;;3.20;2.00;;;;;;;;;;5052467;28;20033;-69
2023/04/07 04:05:52;;;;;;;3.20;2.13;;;;;;;;;;5051981;28;20508;-69
2023/04/07 04:08:19;;;;;;;4.13;2.22;;;;;;;;;;5052062;28;20037;-69
2023/04/07 04:10:46;;;;;;;3.20;1.48;;;;;;;;;;5052295;28;20029;-69
2023/04/07 04:13:12;;;;;;;2.65;1.67;;;;;;;;;;5052375;28;20405;-69
2023/04/07 04:15:38;;;;;;;2.72;1.85;;;;;;;;;;5052222;28;20024;-69
2023/04/07 04:18:05;;;;;;;2.30;1.60;;;;;;;;;;5052738;28;20037;-69
2023/04/07 04:20:31;;;;;;;2.10;1.70;;;;;;;;;;5051974;28;20025;-69
2023/04/07 04:22:57;;;;;;;1.90;1.60;;;;;;;;;;5051581;28;20039;-69
2023/04/07 04:25:23;;;;;;;3.97;1.95;;;;;;;;;;5052152;28;20045;-69
2023/04/07 04:27:50;;;;;;;1.85;1.48;;;;;;;;;;5052262;28;20013;-69
2023/04/07 04:30:16;;;;;;;3.25;1.90;;;;;;;;;;5052072;28;20051;-69
2023/04/07 04:32:43;;;;;;;6.22;1.85;;;;;;;;;;5052165;28;20524;-69
2023/04/07 04:35:09;;;;;;;3.75;1.92;;;;;;;;;;5051716;28;20504;-68
2023/04/07 04:37:36;;;;;;;3.83;1.77;;;;;;;;;;5051999;28;20025;-68
2023/04/07 04:40:02;;;;;;;3.30;1.73;;;;;;;;;;5051556;28;20066;-69
2023/04/07 04:42:30;;;;;;;1.83;1.60;;;;;;;;;;5051924;28;20029;-69
2023/04/07 04:44:56;;;;;;;4.68;1.95;;;;;;;;;;5051552;28;20519;-69
2023/04/07 04:47:23;;;;;;;3.05;1.70;;;;;;;;;;5052215;28;20067;-68
2023/04/07 04:49:49;;;;;;;3.28;1.80;;;;;;;;;;5050663;28;20037;-69
2023/04/07 04:52:15;;;;;;;3.67;1.80;;;;;;;;;;5051580;28;20074;-69
2023/04/07 04:54:42;;;;;;;2.67;1.70;;;;;;;;;;5051697;28;20035;-69
2023/04/07 04:57:08;;;;;;;2.83;1.73;;;;;;;;;;5051656;28;20029;-69
2023/04/07 04:59:34;;;;;;;2.22;1.60;;;;;;;;;;5051739;28;20029;-69
2023/04/07 05:02:00;;;;;;;2.67;1.70;;;;;;;;;;5051859;28;20017;-69
2023/04/07 05:04:27;;;;;;;2.72;1.80;;;;;;;;;;5051521;28;20029;-69
2023/04/07 05:06:53;;;;;;;4.13;2.05;;;;;;;;;;5050247;28;20397;-69
2023/04/07 05:09:19;;;;;;;2.75;2.20;;;;;;;;;;5051946;28;20021;-70
2023/04/07 05:11:46;;;;;;;6.43;3.05;;;;;;;;;;5051619;28;20534;-69
2023/04/07 05:14:12;;;;;;;4.30;2.80;;;;;;;;;;5051775;28;20023;-69
2023/04/07 05:16:39;;;;;;;7.15;2.45;;;;;;;;;;5051289;28;20036;-69
2023/04/07 05:19:05;;;;;;;4.75;2.97;;;;;;;;;;5051664;28;20017;-69
2023/04/07 05:21:31;;;;;;;3.13;2.10;;;;;;;;;;5051211;28;20033;-69
2023/04/07 05:23:57;;;;;;;5.57;2.03;;;;;;;;;;5051508;28;20388;-69
2023/04/07 05:26:24;;;;;;;4.35;2.20;;;;;;;;;;5051323;28;20043;-69
2023/04/07 05:28:51;;;;;;;2.67;1.95;;;;;;;;;;5051669;28;20382;-69
2023/04/07 05:31:17;;;;;;;3.38;2.10;;;;;;;;;;5051398;28;20056;-69
2023/04/07 05:33:43;;;;;;;3.35;2.20;;;;;;;;;;5052594;28;20021;-69
2023/04/07 05:36:10;;;;;;;3.28;2.30;;;;;;;;;;5054706;28;20401;-69
2023/04/07 05:38:36;;;;;;;7.75;2.83;;;;;;;;;;5055061;28;20074;-69
2023/04/07 05:41:03;;;;;;;8.20;2.92;;;;;;;;;;5055008;28;20469;-69
2023/04/07 05:43:29;;;;;;;8.43;3.40;;;;;;;;;;5055053;28;20017;-69
2023/04/07 05:45:56;;;;;;;7.95;3.97;;;;;;;;;;5054472;28;20432;-69
2023/04/07 05:48:22;;;;;;;5.95;3.78;;;;;;;;;;5054674;28;20036;-69
2023/04/07 05:50:48;;;;;;;5.93;3.42;;;;;;;;;;5054373;28;20039;-69
2023/04/07 05:53:15;;;;;;;7.43;3.90;;;;;;;;;;5054458;28;20428;-69
2023/04/07 05:55:44;;;;;;;15.20;5.90;;;;;;;;;;5054929;28;20029;-69
2023/04/07 05:58:10;;;;;;;23.35;8.40;;;;;;;;;;5054616;28;20404;-69
2023/04/07 06:00:37;;;;;;;17.80;6.03;;;;;;;;;;5054311;28;20041;-69
2023/04/07 06:03:03;;;;;;;18.48;6.50;;;;;;;;;;5054717;28;20023;-69
2023/04/07 06:05:30;;;;;;;8.93;3.65;;;;;;;;;;5054502;28;20398;-69
2023/04/07 06:07:56;;;;;;;9.73;2.78;;;;;;;;;;5054403;28;20032;-69
2023/04/07 06:10:22;;;;;;;7.78;2.67;;;;;;;;;;5054236;28;20013;-69
2023/04/07 06:12:48;;;;;;;4.82;2.42;;;;;;;;;;5054390;28;20032;-69
2023/04/07 06:15:15;;;;;;;6.40;2.25;;;;;;;;;;5054244;28;20031;-69
2023/04/07 06:17:44;;;;;;;12.60;2.97;;;;;;;;;;5054051;28;20029;-69
2023/04/07 06:20:10;;;;;;;6.18;2.60;;;;;;;;;;5054266;28;20025;-69
2023/04/07 06:22:37;;;;;;;6.97;2.47;;;;;;;;;;5054439;28;20029;-69
2023/04/07 06:25:03;;;;;;;8.95;2.72;;;;;;;;;;5052732;28;20678;-70
2023/04/07 06:27:30;;;;;;;8.25;2.55;;;;;;;;;;5060927;28;20023;-69
2023/04/07 06:29:56;;;;;;;3.78;2.10;;;;;;;;;;5055480;28;20052;-69
2023/04/07 06:32:24;;;;;;;9.68;2.25;;;;;;;;;;5053639;28;20031;-69
2023/04/07 06:34:50;;;;;;;5.57;2.40;;;;;;;;;;5053178;28;20051;-69
2023/04/07 06:37:17;;;;;;;6.63;2.53;;;;;;;;;;5053767;28;20033;-69
2023/04/07 06:39:44;;;;;;;6.80;2.35;;;;;;;;;;5053693;28;20031;-69
2023/04/07 06:42:10;;;;;;;7.03;2.38;;;;;;;;;;5049737;28;20013;-69
2023/04/07 06:44:36;;;;;;;5.65;2.25;;;;;;;;;;5051631;28;20029;-68
2023/04/07 06:47:03;;;;;;;10.52;3.10;;;;;;;;;;5052825;28;20494;-69
2023/04/07 06:49:29;;;;;;;7.10;3.08;;;;;;;;;;5042655;28;20527;-68
2023/04/07 06:51:56;;;;;;;7.35;2.85;;;;;;;;;;5038974;28;20498;-68
2023/04/07 06:54:22;;;;;;;7.53;2.58;;;;;;;;;;5052756;28;20099;-69
2023/04/07 06:56:49;;;;;;;4.43;2.15;;;;;;;;;;5053862;28;20029;-69
2023/04/07 06:59:15;;;;;;;4.22;1.83;;;;;;;;;;5050692;28;20017;-69
2023/04/07 07:01:42;;;;;;;3.78;1.63;;;;;;;;;;5052468;28;20427;-70
2023/04/07 07:04:09;;;;;;;3.47;1.73;;;;;;;;;;5044771;28;20058;-69
2023/04/07 07:06:35;;;;;;;5.65;2.28;;;;;;;;;;5037142;28;20040;-69
2023/04/07 07:09:02;;;;;;;2.92;1.70;;;;;;;;;;5048847;28;20025;-68
2023/04/07 07:11:28;;;;;;;5.47;2.10;;;;;;;;;;5050306;28;20025;-70
2023/04/07 07:13:54;;;;;;;3.22;1.60;;;;;;;;;;5047069;28;20029;-69
2023/04/07 07:16:22;;;;;;;6.15;1.73;;;;;;;;;;5042546;28;20033;-69
2023/04/07 07:18:50;;;;;;;2.67;1.40;;;;;;;;;;5052200;28;20027;-70
2023/04/07 07:21:17;;;;;;;8.23;1.67;;;;;;;;;;5052308;28;20037;-70
2023/04/07 07:23:43;;;;;;;3.60;1.50;;;;;;;;;;5052264;28;20029;-69
2023/04/07 07:26:10;;;;;;;5.18;1.60;;;;;;;;;;5051145;28;20033;-70
2023/04/07 07:28:36;;;;;;;8.57;1.83;;;;;;;;;;5051689;28;20028;-69
2023/04/07 07:31:11;;;;;;;4.25;2.10;;;;;;;;;;5051678;28;20528;-71
2023/04/07 07:33:39;;;;;;;26.77;16.02;;;;;;;;;;5046865;28;20017;-71
2023/04/07 07:36:05;;;;;;;23.15;16.30;;;;;;;;;;5038070;28;20067;-70
2023/04/07 07:38:32;;;;;;;21.92;14.25;;;;;;;;;;5051432;28;20078;-70
2023/04/07 07:40:58;;;;;;;17.30;11.52;;;;;;;;;;5042026;28;20021;-70
2023/04/07 07:43:25;;;;;;;21.48;12.20;;;;;;;;;;5044149;28;20509;-69
2023/04/07 07:45:51;;;;;;;8.32;5.50;;;;;;;;;;5040107;28;20413;-69
2023/04/07 07:48:17;;;;;;;6.68;3.97;;;;;;;;;;5035063;28;20051;-69
2023/04/07 07:50:44;;;;;;;6.53;2.75;;;;;;;;;;5049038;28;20033;-69
2023/04/07 07:53:10;;;;;;;5.35;3.33;;;;;;;;;;5039713;28;20024;-69
2023/04/07 07:55:37;;;;;;;7.10;2.67;;;;;;;;;;5043229;28;20033;-69
2023/04/07 07:58:03;;;;;;;2.58;2.35;;;;;;;;;;5040305;28;20009;-69
2023/04/07 08:00:29;;;;;;;4.20;2.70;;;;;;;;;;5045248;28;20047;-68
2023/04/07 08:02:56;;;;;;;3.65;2.67;;;;;;;;;;5047536;28;20036;-69
2023/04/07 08:05:22;;;;;;;4.90;3.42;;;;;;;;;;5049878;28;20037;-69
2023/04/07 08:07:49;;;;;;;8.90;4.55;;;;;;;;;;5051097;28;20046;-68
2023/04/07 08:10:15;;;;;;;9.98;4.63;;;;;;;;;;5051304;28;20017;-69
2023/04/07 08:12:42;;;;;;;7.35;4.75;;;;;;;;;;5051477;28;20017;-69
2023/04/07 08:15:09;;;;;;;10.27;4.50;;;;;;;;;;5055268;28;20028;-69
2023/04/07 08:17:35;;;;;;;9.80;4.43;;;;;;;;;;5052246;28;20017;-69
2023/04/07 08:20:02;;;;;;;9.38;6.53;;;;;;;;;;5050191;28;20033;-69
2023/04/07 08:22:29;;;;;;;7.25;5.50;;;;;;;;;;5050502;28;20028;-69
2023/04/07 08:24:55;;;;;;;7.70;5.15;;;;;;;;;;5051024;28;20033;-68
2023/04/07 08:27:21;;;;;;;8.25;4.95;;;;;;;;;;5049426;28;20400;-70
2023/04/07 08:30:01;;;;;;;7.53;3.50;;;;;;;;;;5050184;28;20513;-69
2023/04/07 08:32:34;;;;;;;5.95;3.88;;;;;;;;;;5051086;28;20041;-69
2023/04/07 08:35:00;;;;;;;4.93;4.00;;;;;;;;;;5029881;28;20397;-70
2023/04/07 08:37:27;;;;;;;5.32;3.10;;;;;;;;;;5030956;28;20026;-69
2023/04/07 08:39:53;;;;;;;4.65;3.10;;;;;;;;;;5030887;28;20030;-67
2023/04/07 08:42:19;;;;;;;5.60;3.13;;;;;;;;;;5031311;28;20040;-69
2023/04/07 08:44:47;;;;;;;4.55;4.03;;;;;;;;;;5033081;28;20026;-69
2023/04/07 08:47:14;;;;;;;8.10;3.70;;;;;;;;;;5051083;28;20033;-69
2023/04/07 08:49:44;;;;;;;4.13;3.60;;;;;;;;;;5051231;28;20085;-70
2023/04/07 08:52:13;;;;;;;7.88;2.80;;;;;;;;;;5051292;28;20036;-69
2023/04/07 08:54:39;;;;;;;4.47;3.58;;;;;;;;;;5051587;28;20068;-70
2023/04/07 08:57:07;;;;;;;3.40;2.50;;;;;;;;;;5051015;28;20028;-69
2023/04/07 08:59:34;;;;;;;4.70;2.90;;;;;;;;;;5050693;28;20013;-68
2023/04/07 09:02:01;;;;;;;6.57;2.72;;;;;;;;;;5051375;28;20021;-68
2023/04/07 09:04:28;;;;;;;4.82;2.70;;;;;;;;;;5050609;28;20088;-69
2023/04/07 09:06:54;;;;;;;4.15;2.42;;;;;;;;;;5050296;28;20043;-70
2023/04/07 09:09:21;;;;;;;3.28;2.70;;;;;;;;;;5049790;28;20478;-70
2023/04/07 09:11:48;;;;;;;3.90;2.60;;;;;;;;;;5052431;28;20032;-70
2023/04/07 09:14:15;;;;;;;4.93;2.45;;;;;;;;;;5054332;28;20051;-67
2023/04/07 09:16:41;;;;;;;5.78;2.53;;;;;;;;;;5053552;28;20033;-71
2023/04/07 09:19:07;;;;;;;5.60;2.28;;;;;;;;;;5054653;28;20043;-69
2023/04/07 09:21:49;;;;;;;6.72;3.20;;;;;;;;;;5054619;28;20021;-68
2023/04/07 09:24:25;;;;;;;5.60;3.28;;;;;;;;;;5056254;28;20032;-69
2023/04/07 09:27:09;;;;;;;6.45;2.83;;;;;;;;;;5054190;28;20048;-69
2023/04/07 09:29:35;;;;;;;2.58;2.22;;;;;;;;;;5054353;28;20029;-70
2023/04/07 09:32:01;;;;;;;4.32;2.50;;;;;;;;;;5054590;28;20037;-70
2023/04/07 09:34:29;;;;;;;3.72;2.30;;;;;;;;;;5054866;28;20498;-68
2023/04/07 09:36:56;;;;;;;3.70;1.92;;;;;;;;;;5054224;28;20031;-69
2023/04/07 09:39:22;;;;;;;3.65;2.42;;;;;;;;;;5054147;28;20486;-69
2023/04/07 09:41:50;;;;;;;3.60;2.20;;;;;;;;;;5053596;28;20071;-69
2023/04/07 09:44:18;;;;;;;5.03;2.05;;;;;;;;;;5054598;28;20025;-69
2023/04/07 09:46:50;;;;;;;15.32;2.80;;;;;;;;;;5052813;28;20029;-69
2023/04/07 09:49:18;;;;;;;9.50;2.50;;;;;;;;;;5053141;28;20032;-68
2023/04/07 09:52:04;;;;;;;10.50;2.92;;;;;;;;;;5053895;28;20017;-69
2023/04/07 09:54:35;;;;;;;6.57;2.10;;;;;;;;;;5053471;28;20033;-68
2023/04/07 09:57:02;;;;;;;8.30;2.30;;;;;;;;;;5053782;28;20021;-69
2023/04/07 09:59:29;;;;;;;4.88;1.77;;;;;;;;;;5054468;28;20016;-69
2023/04/07 10:01:55;;;;;;;2.72;1.45;;;;;;;;;;5053701;28;20027;-68
2023/04/07 10:04:22;;;;;;;5.90;1.92;;;;;;;;;;5053520;28;20031;-69
2023/04/07 10:06:49;;;;;;;3.70;1.83;;;;;;;;;;5052950;28;20070;-67
2023/04/07 10:09:16;;;;;;;5.32;1.80;;;;;;;;;;5053689;28;20028;-69
2023/04/07 10:11:43;;;;;;;6.40;1.63;;;;;;;;;;5053257;28;20044;-69
2023/04/07 10:14:10;;;;;;;1.55;1.35;;;;;;;;;;5054015;28;20031;-69
2023/04/07 10:16:37;;;;;;;1.45;1.10;;;;;;;;;;5040190;28;20036;-69
2023/04/07 10:19:05;;;;;;;2.20;1.17;;;;;;;;;;5039922;28;20020;-69
2023/04/07 10:21:36;;;;;;;2.83;1.30;;;;;;;;;;5044409;28;20056;-69
2023/04/07 10:24:08;;;;;;;2.40;1.33;;;;;;;;;;5051566;28;20017;-69
2023/04/07 10:26:36;;;;;;;2.75;1.05;;;;;;;;;;5051409;28;20033;-69
2023/04/07 10:29:06;;;;;;;2.17;1.10;;;;;;;;;;5051908;28;20020;-69
2023/04/07 10:31:33;;;;;;;2.88;1.38;;;;;;;;;;5051560;28;20157;-69
2023/04/07 10:34:00;;;;;;;4.68;0.95;;;;;;;;;;5044047;28;20508;-69
2023/04/07 10:36:28;;;;;;;2.65;1.40;;;;;;;;;;5053211;28;20032;-69
2023/04/07 10:39:06;;;;;;;5.25;1.60;;;;;;;;;;5053490;28;20432;-69
2023/04/07 10:41:33;;;;;;;3.80;1.08;;;;;;;;;;5053489;28;20028;-69
2023/04/07 10:44:01;;;;;;;5.88;1.13;;;;;;;;;;5053314;28;20086;-69
2023/04/07 10:46:48;;;;;;;3.40;1.00;;;;;;;;;;5052982;28;20025;-69
2023/04/07 10:49:18;;;;;;;2.80;1.45;;;;;;;;;;5053141;28;20025;-69
2023/04/07 10:51:44;;;;;;;;;;;;;;;;;;5053436;28;20033;-69
2023/04/07 10:54:21;;;;;;;2.55;1.10;;;;;;;;;;5052848;28;19922;-69
2023/04/07 10:57:02;;;;;;;4.45;1.30;;;;;;;;;;5053589;28;20025;-69
2023/04/07 10:59:39;;;;;;;2.50;1.02;;;;;;;;;;5052997;28;20025;-69
2023/04/07 11:02:15;;;;;;;1.42;1.10;;;;;;;;;;5053183;28;20024;-69
2023/04/07 11:04:42;;;;;;;3.00;1.20;;;;;;;;;;5052717;28;20021;-69
2023/04/07 11:07:09;;;;;;;3.33;1.60;;;;;;;;;;5052815;28;20385;-69
2023/04/07 11:09:36;;;;;;;5.95;1.20;;;;;;;;;;5052650;28;20539;-69
2023/04/07 11:12:02;;;;;;;3.78;1.30;;;;;;;;;;5053057;28;20536;-69
2023/04/07 11:14:29;;;;;;;5.43;1.92;;;;;;;;;;5052761;28;20028;-69
2023/04/07 11:16:56;;;;;;;2.13;1.30;;;;;;;;;;5052596;28;20021;-69
2023/04/07 11:19:22;;;;;;;2.15;1.35;;;;;;;;;;5052306;28;20489;-69
2023/04/07 11:21:48;;;;;;;4.05;1.58;;;;;;;;;;5052316;28;20017;-69
2023/04/07 11:24:33;;;;;;;3.88;1.50;;;;;;;;;;5052371;28;20033;-69
2023/04/07 11:27:00;;;;;;;5.40;1.85;;;;;;;;;;5052381;28;20538;-69
2023/04/07 11:29:31;;;;;;;2.15;1.38;;;;;;;;;;5052110;28;20055;-69
2023/04/07 11:31:58;;;;;;;3.05;1.50;;;;;;;;;;5083784;28;20526;-69
2023/04/07 11:34:31;;;;;;;4.97;1.40;;;;;;;;;;5052267;28;20023;-69
2023/04/07 11:36:58;;;;;;;7.30;1.52;;;;;;;;;;5052267;28;20051;-69
2023/04/07 11:39:34;;;;;;;3.55;1.15;;;;;;;;;;5048938;28;20074;-69
2023/04/07 11:42:00;;;;;;;1.55;1.23;;;;;;;;;;5051130;28;20043;-69
2023/04/07 11:44:26;;;;;;;1.60;1.27;;;;;;;;;;5051486;28;20412;-68
2023/04/07 11:46:54;;;;;;;2.22;1.27;;;;;;;;;;5051111;28;20059;-69
2023/04/07 11:49:21;;;;;;;2.42;1.33;;;;;;;;;;5051578;28;20070;-69
2023/04/07 11:51:48;;;;;;;2.33;1.08;;;;;;;;;;5051306;28;20515;-69
2023/04/07 11:54:14;;;;;;;1.77;1.20;;;;;;;;;;5051679;28;20036;-68
2023/04/07 11:56:45;;;;;;;6.38;1.30;;;;;;;;;;5051946;28;20016;-69
2023/04/07 11:59:37;;;;;;;2.08;0.90;;;;;;;;;;5050190;28;20036;-69
2023/04/07 12:02:04;;;;;;;5.28;0.75;;;;;;;;;;5050257;28;20436;-69
2023/04/07 12:04:30;;;;;;;2.08;1.02;;;;;;;;;;5051226;28;20031;-68
2023/04/07 12:07:07;;;;;;;1.20;0.70;;;;;;;;;;5051228;28;20029;-69
2023/04/07 12:09:37;;;;;;;2.03;0.80;;;;;;;;;;5051322;28;20035;-69
2023/04/07 12:12:04;;;;;;;;;;;;;;;;;;5051789;28;20031;-69
2023/04/07 12:14:30;;;;;;;4.35;0.98;;;;;;;;;;5051277;28;20399;-69
2023/04/07 12:16:57;;;;;;;3.92;1.30;;;;;;;;;;5051205;28;20035;-69
2023/04/07 12:19:24;;;;;;;3.03;0.90;;;;;;;;;;5051581;28;20473;-69
2023/04/07 12:21:51;;;;;;;1.92;1.30;;;;;;;;;;5050604;28;20074;-68
2023/04/07 12:24:17;;;;;;;1.77;0.80;;;;;;;;;;5051383;28;20521;-69
2023/04/07 12:26:44;;;;;;;3.33;1.20;;;;;;;;;;5050034;28;20037;-69
2023/04/07 12:29:10;;;;;;;1.00;0.90;;;;;;;;;;5050209;28;20024;-69
2023/04/07 12:31:36;;;;;;;2.92;1.15;;;;;;;;;;5051077;28;20490;-69
2023/04/07 12:34:03;;;;;;;1.20;0.80;;;;;;;;;;5062781;28;20370;-69
2023/04/07 12:36:29;;;;;;;2.00;1.10;;;;;;;;;;5051417;28;20029;-69
2023/04/07 12:38:55;;;;;;;2.72;1.00;;;;;;;;;;5047573;28;20036;-69
2023/04/07 12:41:22;;;;;;;1.20;0.90;;;;;;;;;;5049718;28;20033;-68
2023/04/07 12:43:49;;;;;;;1.55;1.00;;;;;;;;;;5053996;28;20025;-69
2023/04/07 12:46:15;;;;;;;0.75;0.70;;;;;;;;;;5054897;28;20033;-69
2023/04/07 12:48:42;;;;;;;2.55;1.05;;;;;;;;;;5054956;28;20363;-69
2023/04/07 12:51:08;;;;;;;1.13;0.77;;;;;;;;;;5054827;28;20047;-69
2023/04/07 12:53:35;;;;;;;0.85;0.82;;;;;;;;;;5054974;28;20013;-69
2023/04/07 12:56:01;;;;;;;0.68;0.68;;;;;;;;;;5055252;28;20031;-69
2023/04/07 12:58:27;;;;;;;2.38;1.00;;;;;;;;;;5054557;28;20525;-68
2023/04/07 13:00:53;;;;;;;0.70;0.70;;;;;;;;;;5054908;28;20021;-68
2023/04/07 13:03:20;;;;;;;1.80;0.85;;;;;;;;;;5054603;28;20029;-68
2023/04/07 13:05:47;;;;;;;0.70;0.70;;;;;;;;;;5053564;28;20514;-69
2023/04/07 13:08:13;;;;;;;3.83;0.90;;;;;;;;;;5054972;28;20035;-68
2023/04/07 13:10:40;;;;;;;0.80;0.80;;;;;;;;;;5054557;28;20033;-68
2023/04/07 13:13:06;;;;;;;1.30;0.90;;;;;;;;;;5052806;28;20025;-68
2023/04/07 13:15:32;;;;;;;1.05;0.80;;;;;;;;;;5054708;28;20025;-68
2023/04/07 13:17:59;;;;;;;1.73;0.90;;;;;;;;;;5054767;28;20039;-69
2023/04/07 13:20:26;;;;;;;1.30;0.65;;;;;;;;;;5054187;28;20037;-68
2023/04/07 13:22:53;;;;;;;1.42;0.80;;;;;;;;;;5054808;28;20017;-69
2023/04/07 13:25:20;;;;;;;0.60;0.60;;;;;;;;;;5054488;28;20493;-69
2023/04/07 13:27:46;;;;;;;2.58;0.63;;;;;;;;;;5054255;28;20020;-68
2023/04/07 13:30:13;;;;;;;2.70;0.60;;;;;;;;;;5054083;28;20094;-69
2023/04/07 13:32:40;;;;;;;2.28;0.98;;;;;;;;;;5054097;28;20063;-68
2023/04/07 13:35:07;;;;;;;1.63;0.70;;;;;;;;;;5054011;28;20033;-68
2023/04/07 13:37:33;;;;;;;1.77;0.77;;;;;;;;;;5054108;28;20025;-68
2023/04/07 13:40:00;;;;;;;2.08;0.70;;;;;;;;;;5054420;28;20066;-68
2023/04/07 13:42:26;;;;;;;4.22;0.90;;;;;;;;;;5053879;28;20444;-68
2023/04/07 13:44:53;;;;;;;1.80;1.08;;;;;;;;;;5052911;28;20051;-69
2023/04/07 13:47:20;;;;;;;1.35;0.70;;;;;;;;;;5053888;28;20043;-68
2023/04/07 13:49:47;;;;;;;0.82;0.70;;;;;;;;;;5053229;28;20048;-68
2023/04/07 13:52:13;;;;;;;1.95;0.60;;;;;;;;;;5053797;28;20425;-68
2023/04/07 13:54:40;;;;;;;1.58;0.90;;;;;;;;;;5052608;28;20024;-68
2023/04/07 13:57:07;;;;;;;2.15;0.80;;;;;;;;;;5052569;28;20439;-68
2023/04/07 13:59:33;;;;;;;2.00;0.80;;;;;;;;;;5053853;28;20100;-68
2023/04/07 14:02:00;;;;;;;2.22;0.90;;;;;;;;;;5053663;28;20025;-69
2023/04/07 14:04:26;;;;;;;1.75;0.50;;;;;;;;;;5053972;28;20075;-68
2023/04/07 14:06:53;;;;;;;1.27;0.70;;;;;;;;;;5054506;28;20643;-68
2023/04/07 14:09:19;;;;;;;2.90;1.10;;;;;;;;;;5053686;28;20405;-68
2023/04/07 14:11:47;;;;;;;5.18;0.88;;;;;;;;;;5053136;28;20025;-68
2023/04/07 14:14:13;;;;;;;2.25;0.70;;;;;;;;;;5053859;28;20017;-68
2023/04/07 14:16:39;;;;;;;1.15;0.70;;;;;;;;;;5053646;28;20029;-68
2023/04/07 14:19:05;;;;;;;2.50;0.90;;;;;;;;;;5051328;28;20021;-67
2023/04/07 14:21:32;;;;;;;1.50;0.77;;;;;;;;;;5053206;28;20031;-68
2023/04/07 14:23:59;;;;;;;2.67;0.90;;;;;;;;;;5053892;28;20021;-68
2023/04/07 14:26:26;;;;;;;7.13;0.90;;;;;;;;;;5052372;28;20097;-68
2023/04/07 14:28:52;;;;;;;4.13;0.90;;;;;;;;;;5052593;28;20023;-68
2023/04/07 14:31:19;;;;;;;3.47;0.80;;;;;;;;;;5052475;28;20044;-68
2023/04/07 14:33:46;;;;;;;3.22;1.05;;;;;;;;;;5053054;28;20029;-68
2023/04/07 14:36:15;;;;;;;1.92;0.80;;;;;;;;;;5053105;28;20036;-67
2023/04/07 14:38:41;;;;;;;1.83;0.82;;;;;;;;;;5052446;28;20025;-68
2023/04/07 14:41:09;;;;;;;4.53;0.80;;;;;;;;;;5052723;28;20027;-67
2023/04/07 14:43:36;;;;;;;0.70;0.70;;;;;;;;;;5052961;28;20027;-67
2023/04/07 14:46:02;;;;;;;3.90;0.82;;;;;;;;;;5050956;28;20480;-68